Time;durP1;ratioP1;P1;durP2;ratioP2;P2;SDS_P1;SDS_P2;PMS_P1;PMS_P2;Temp;Humidity;BMP_temperature;BMP_pressure;BME280_temperature;BME280_humidity;BME280_pressure;Samples;Min_cycle;Max_cycle;Signal;HPM_P1;HPM_P2
2023/10/12 00:02:08;;;;;;;0.10;0.10;;;13.90;99.90;;;;;;5048859;28;20424;-90
2023/10/12 00:05:00;;;;;;;0.10;0.10;;;13.90;99.90;;;;;;5054634;28;20072;-90
2023/10/12 00:07:35;;;;;;;0.10;0.10;;;13.90;99.90;;;;;;5050547;28;20049;-90
2023/10/12 00:12:44;;;;;;;0.10;0.10;;;13.90;99.90;;;;;;5047640;28;20099;-90
2023/10/12 00:17:46;;;;;;;0.20;0.20;;;13.90;99.90;;;;;;5042976;28;20115;-90
2023/10/12 00:20:34;;;;;;;0.20;0.20;;;13.90;99.90;;;;;;5040324;28;20485;-91
2023/10/12 00:23:09;;;;;;;0.20;0.20;;;14.00;99.90;;;;;;5055007;28;20052;-90
2023/10/12 00:25:41;;;;;;;0.20;0.20;;;14.00;99.90;;;;;;5043921;28;20099;-90
2023/10/12 00:28:07;;;;;;;0.10;0.10;;;14.00;99.90;;;;;;5068030;28;20067;-90
2023/10/12 00:30:33;;;;;;;0.15;0.15;;;13.90;99.90;;;;;;5049547;28;20033;-90
2023/10/12 00:32:59;;;;;;;0.20;0.20;;;14.00;99.90;;;;;;5055738;28;20375;-89
2023/10/12 00:35:24;;;;;;;0.17;0.17;;;13.80;99.90;;;;;;5052641;28;20049;-89
2023/10/12 00:37:54;;;;;;;0.20;0.20;;;13.90;99.90;;;;;;5052942;28;20080;-90
2023/10/12 00:40:26;;;;;;;0.20;0.20;;;14.00;99.90;;;;;;5050230;28;20049;-90
2023/10/12 00:42:53;;;;;;;0.20;0.20;;;13.90;99.90;;;;;;5048171;28;20041;-90
2023/10/12 00:45:29;;;;;;;0.10;0.10;;;14.00;99.90;;;;;;5049139;28;20087;-90
2023/10/12 00:48:06;;;;;;;0.15;0.15;;;14.00;99.90;;;;;;5050044;28;20083;-91
2023/10/12 00:50:32;;;;;;;0.10;0.10;;;13.90;99.90;;;;;;5056019;28;20040;-90
2023/10/12 00:53:14;;;;;;;0.20;0.20;;;13.90;99.90;;;;;;5066332;28;20048;-90
2023/10/12 00:55:41;;;;;;;0.10;0.10;;;13.90;99.90;;;;;;5072014;28;20045;-91
2023/10/12 00:58:10;;;;;;;0.10;0.10;;;13.90;99.90;;;;;;5048056;28;20041;-90
2023/10/12 01:00:51;;;;;;;0.17;0.17;;;13.90;99.90;;;;;;5046039;28;20049;-90
2023/10/12 01:08:51;;;;;;;0.10;0.10;;;14.00;99.90;;;;;;5033937;28;20512;-89
2023/10/12 01:11:33;;;;;;;0.10;0.10;;;13.90;99.90;;;;;;5043619;28;20049;-88
2023/10/12 01:16:29;;;;;;;0.20;0.20;;;13.90;99.90;;;;;;5065215;28;20060;-88
2023/10/12 01:19:01;;;;;;;0.20;0.20;;;13.90;99.90;;;;;;5066440;28;20101;-88
2023/10/12 01:21:30;;;;;;;0.20;0.20;;;13.80;99.90;;;;;;5045990;28;20096;-88
2023/10/12 01:24:03;;;;;;;0.10;0.10;;;13.70;99.90;;;;;;5032827;28;20045;-89
2023/10/12 01:26:31;;;;;;;0.13;0.13;;;13.80;99.90;;;;;;5053316;28;20162;-89
2023/10/12 01:28:58;;;;;;;0.13;0.13;;;13.80;99.90;;;;;;5039952;28;20045;-89
2023/10/12 01:31:28;;;;;;;0.10;0.10;;;13.80;99.90;;;;;;5067477;28;20524;-89
2023/10/12 01:33:59;;;;;;;0.10;0.10;;;13.70;99.90;;;;;;5049234;28;20053;-88
2023/10/12 01:36:30;;;;;;;0.20;0.20;;;13.70;99.90;;;;;;5040373;28;20052;-89
2023/10/12 01:39:13;;;;;;;0.20;0.20;;;13.70;99.90;;;;;;5038635;28;20048;-89
2023/10/12 01:41:42;;;;;;;0.17;0.17;;;13.70;99.90;;;;;;5051555;28;20060;-89
2023/10/12 01:44:11;;;;;;;0.20;0.20;;;13.70;99.90;;;;;;5052023;28;20048;-90
2023/10/12 01:46:41;;;;;;;0.20;0.20;;;13.70;99.90;;;;;;5052369;28;20124;-89
2023/10/12 01:49:11;;;;;;;0.20;0.20;;;13.60;99.90;;;;;;5047720;28;20060;-88
2023/10/12 01:51:44;;;;;;;0.20;0.20;;;13.60;99.90;;;;;;5047068;28;20048;-89
2023/10/12 01:54:12;;;;;;;0.20;0.20;;;13.60;99.90;;;;;;5054524;28;20048;-88
2023/10/12 01:56:38;;;;;;;0.20;0.20;;;13.60;99.90;;;;;;5052438;28;20041;-89
2023/10/12 01:59:07;;;;;;;0.10;0.10;;;13.50;99.90;;;;;;5045130;28;20055;-89
2023/10/12 02:01:41;;;;;;;0.17;0.17;;;13.60;99.90;;;;;;5051052;28;20063;-90
2023/10/12 02:04:07;;;;;;;0.20;0.20;;;13.60;99.90;;;;;;5037570;28;20040;-89
2023/10/12 02:06:33;;;;;;;0.20;0.20;;;13.60;99.90;;;;;;5054267;28;20040;-89
2023/10/12 02:09:10;;;;;;;0.10;0.10;;;13.60;99.90;;;;;;5054766;28;20484;-90
2023/10/12 02:11:44;;;;;;;0.10;0.10;;;13.60;99.90;;;;;;5046001;28;20538;-89
2023/10/12 02:14:11;;;;;;;0.20;0.20;;;13.60;99.90;;;;;;5036958;28;20057;-89
2023/10/12 02:16:38;;;;;;;0.20;0.20;;;13.60;99.90;;;;;;5049701;28;20064;-90
2023/10/12 02:19:04;;;;;;;0.10;0.10;;;13.50;99.90;;;;;;5047356;28;20053;-89
2023/10/12 02:21:37;;;;;;;0.10;0.10;;;13.50;99.90;;;;;;5052910;28;20092;-90
2023/10/12 02:26:36;;;;;;;0.20;0.20;;;13.50;99.90;;;;;;5051574;28;20452;-89
2023/10/12 02:31:45;;;;;;;0.20;0.20;;;13.40;99.90;;;;;;5052195;28;20064;-89
2023/10/12 02:34:16;;;;;;;0.20;0.20;;;13.40;99.90;;;;;;5050290;28;20041;-90
2023/10/12 02:37:02;;;;;;;0.10;0.10;;;13.40;99.90;;;;;;5054930;28;20068;-89
2023/10/12 02:39:32;;;;;;;0.10;0.10;;;13.40;99.90;;;;;;5032518;28;20473;-89
2023/10/12 02:47:22;;;;;;;0.10;0.10;;;13.30;99.90;;;;;;5042490;28;20401;-88
2023/10/12 02:50:14;;;;;;;0.20;0.20;;;13.20;99.90;;;;;;5051197;28;20523;-90
2023/10/12 02:52:43;;;;;;;0.10;0.10;;;13.30;99.90;;;;;;5044651;28;20053;-89
2023/10/12 02:57:59;;;;;;;0.10;0.10;;;13.20;99.90;;;;;;5046873;28;20057;-89
2023/10/12 03:00:45;;;;;;;0.20;0.20;;;13.20;99.90;;;;;;5055711;28;20083;-89
2023/10/12 03:05:47;;;;;;;0.10;0.10;;;13.20;99.90;;;;;;5048077;28;20546;-89
2023/10/12 03:08:17;;;;;;;0.20;0.20;;;13.20;99.90;;;;;;5053405;28;20036;-89
2023/10/12 03:11:01;;;;;;;0.20;0.20;;;13.10;99.90;;;;;;5051326;28;21729;-88
2023/10/12 03:13:35;;;;;;;0.20;0.20;;;13.10;99.90;;;;;;5051073;28;20052;-89
2023/10/12 03:18:36;;;;;;;0.10;0.10;;;13.20;99.90;;;;;;5035955;28;20087;-88
2023/10/12 03:21:23;;;;;;;0.10;0.10;;;13.20;99.90;;;;;;5046133;28;20134;-88
2023/10/12 03:23:47;;;;;;;0.10;0.10;;;13.00;99.90;;;;;;5053487;28;20045;-89
2023/10/12 03:28:50;;;;;;;0.10;0.10;;;13.00;99.90;;;;;;5054012;28;20056;-88
2023/10/12 03:31:22;;;;;;;0.20;0.20;;;13.10;99.90;;;;;;5053830;28;20041;-88
2023/10/12 03:33:53;;;;;;;0.10;0.10;;;12.90;99.90;;;;;;5042302;28;20061;-88
2023/10/12 03:36:23;;;;;;;0.20;0.20;;;13.00;99.90;;;;;;5038127;28;20484;-89
2023/10/12 03:41:55;;;;;;;0.15;0.15;;;12.90;99.90;;;;;;5041393;28;20048;-89
2023/10/12 03:52:20;;;;;;;0.10;0.10;;;12.90;99.90;;;;;;5047520;28;20083;-88
2023/10/12 03:54:55;;;;;;;0.10;0.10;;;13.00;99.90;;;;;;5053581;28;20081;-88
2023/10/12 03:57:50;;;;;;;0.20;0.20;;;12.90;99.90;;;;;;5036841;28;20059;-88
2023/10/12 04:08:16;;;;;;;0.10;0.10;;;13.00;99.90;;;;;;5055758;28;20074;-88
2023/10/12 04:18:40;;;;;;;0.20;0.20;;;12.80;99.90;;;;;;5053005;28;20080;-88
2023/10/12 04:21:07;;;;;;;0.15;0.15;;;12.70;99.90;;;;;;5047229;28;20041;-88
2023/10/12 04:26:27;;;;;;;0.10;0.10;;;12.70;99.90;;;;;;5037926;28;20083;-88
2023/10/12 04:28:57;;;;;;;0.10;0.10;;;12.80;99.90;;;;;;5045967;28;20136;-88
2023/10/12 04:34:08;;;;;;;0.10;0.10;;;12.70;99.90;;;;;;5062782;28;20041;-87
2023/10/12 04:39:27;;;;;;;0.10;0.10;;;12.70;99.90;;;;;;5053399;28;20098;-89
2023/10/12 04:42:20;;;;;;;0.10;0.10;;;12.60;99.90;;;;;;5046920;28;20481;-88
2023/10/12 04:45:02;;;;;;;0.10;0.10;;;12.60;99.90;;;;;;5050219;28;20040;-87
2023/10/12 04:47:30;;;;;;;0.10;0.10;;;12.50;99.90;;;;;;5046948;28;20124;-87
2023/10/12 04:49:57;;;;;;;0.17;0.17;;;12.50;99.90;;;;;;5038048;28;20048;-88
2023/10/12 04:52:32;;;;;;;0.20;0.20;;;13.20;99.90;;;;;;5054824;28;20407;-88
2023/10/12 04:57:30;;;;;;;0.20;0.20;;;12.70;99.90;;;;;;5042106;28;20446;-88
2023/10/12 05:07:55;;;;;;;0.20;0.20;;;12.40;99.90;;;;;;5055289;28;20055;-88
2023/10/12 05:10:55;;;;;;;0.10;0.10;;;12.40;99.90;;;;;;5052867;28;20032;-88
2023/10/12 05:13:19;;;;;;;0.10;0.10;;;12.50;99.90;;;;;;5037738;28;20133;-88
2023/10/12 05:15:51;;;;;;;;;;;12.40;99.90;;;;;;5049407;28;20053;-88
2023/10/12 05:18:17;;;;;;;0.10;0.10;;;12.40;99.90;;;;;;5058426;28;19955;-89
2023/10/12 05:20:44;;;;;;;0.10;0.10;;;12.30;99.90;;;;;;5049868;28;20041;-88
2023/10/12 05:23:11;;;;;;;0.10;0.10;;;12.30;99.90;;;;;;5067456;28;20053;-87
2023/10/12 05:26:25;;;;;;;0.10;0.10;;;12.30;99.90;;;;;;5039962;28;20067;-87
2023/10/12 05:28:30;;;;;;;0.10;0.10;;;12.50;99.90;;;;;;5042295;28;20043;-88
2023/10/12 05:31:08;;;;;;;0.10;0.10;;;12.20;99.90;;;;;;5036750;28;20045;-88
2023/10/12 05:36:10;;;;;;;0.10;0.10;;;12.10;99.90;;;;;;5053171;28;20094;-88
2023/10/12 05:38:52;;;;;;;0.10;0.10;;;12.10;99.90;;;;;;5050374;28;20140;-88
2023/10/12 05:41:33;;;;;;;0.20;0.20;;;12.10;99.90;;;;;;5037445;28;20037;-87
2023/10/12 05:44:04;;;;;;;0.20;0.20;;;12.00;99.90;;;;;;5044292;28;20037;-89
2023/10/12 05:46:35;;;;;;;0.17;0.17;;;12.00;99.90;;;;;;5050598;28;20098;-88
2023/10/12 05:49:02;;;;;;;0.10;0.10;;;12.00;99.90;;;;;;5046427;28;20775;-85
2023/10/12 05:51:28;;;;;;;0.10;0.10;;;12.00;99.90;;;;;;5049936;28;20048;-84
2023/10/12 05:54:06;;;;;;;0.20;0.20;;;11.90;99.90;;;;;;5046095;28;20676;-84
2023/10/12 05:56:34;;;;;;;0.10;0.10;;;11.90;99.90;;;;;;5041934;28;20052;-84
2023/10/12 05:59:09;;;;;;;0.10;0.10;;;11.90;99.90;;;;;;5035408;28;20047;-85
2023/10/12 06:01:37;;;;;;;0.10;0.10;;;11.90;99.90;;;;;;5042596;28;20045;-83
2023/10/12 06:04:05;;;;;;;0.15;0.15;;;11.80;99.90;;;;;;5047566;28;20499;-83
2023/10/12 06:06:36;;;;;;;0.17;0.17;;;11.80;99.90;;;;;;5041621;28;20056;-83
2023/10/12 06:11:51;;;;;;;0.20;0.20;;;11.70;99.90;;;;;;5038737;28;20052;-83
2023/10/12 06:14:20;;;;;;;0.10;0.10;;;11.70;99.90;;;;;;5044070;28;20496;-84
2023/10/12 06:16:55;;;;;;;0.10;0.10;;;12.00;99.90;;;;;;5043744;28;20048;-71
2023/10/12 06:19:28;;;;;;;0.20;0.20;;;11.80;99.90;;;;;;5049463;28;20079;-71
2023/10/12 06:22:19;;;;;;;0.10;0.10;;;11.70;99.90;;;;;;5043415;28;20048;-71
2023/10/12 06:24:53;;;;;;;0.20;0.20;;;11.60;99.90;;;;;;5046760;28;20098;-71
2023/10/12 06:29:49;;;;;;;0.10;0.10;;;11.70;99.90;;;;;;5034176;28;20049;-71
2023/10/12 06:32:18;;;;;;;0.10;0.10;;;11.70;99.90;;;;;;5048090;28;20045;-71
2023/10/12 06:35:13;;;;;;;0.10;0.10;;;11.60;99.90;;;;;;5049591;28;20045;-71
2023/10/12 06:45:51;;;;;;;0.10;0.10;;;11.50;99.90;;;;;;5043703;28;20132;-72
2023/10/12 06:51:02;;;;;;;0.20;0.20;;;11.50;99.90;;;;;;5037872;28;20064;-71
2023/10/12 06:53:33;;;;;;;0.10;0.10;;;11.60;99.90;;;;;;5047525;28;20044;-71
2023/10/12 07:04:25;;;;;;;0.20;0.20;;;11.60;99.90;;;;;;5058601;28;20045;-72
2023/10/12 07:06:59;;;;;;;0.10;0.10;;;11.50;99.90;;;;;;5036103;28;20466;-72
2023/10/12 07:09:46;;;;;;;0.17;0.17;;;11.60;99.90;;;;;;5043930;28;20428;-72
2023/10/12 07:12:19;;;;;;;0.10;0.10;;;11.60;99.90;;;;;;5047351;28;20072;-72
2023/10/12 07:14:53;;;;;;;0.10;0.10;;;11.60;99.90;;;;;;5039193;28;20064;-72
2023/10/12 07:17:25;;;;;;;0.10;0.10;;;11.60;99.90;;;;;;5047111;28;20048;-71
2023/10/12 07:19:55;;;;;;;0.10;0.10;;;11.80;99.90;;;;;;5044679;28;20396;-71
2023/10/12 07:22:21;;;;;;;0.10;0.10;;;11.70;99.90;;;;;;5042802;28;20045;-71
2023/10/12 07:24:53;;;;;;;0.10;0.10;;;11.70;99.90;;;;;;5050838;28;20396;-71
2023/10/12 07:27:21;;;;;;;0.15;0.15;;;11.80;99.90;;;;;;5046895;28;20040;-71
2023/10/12 07:29:47;;;;;;;0.10;0.10;;;12.00;99.90;;;;;;5046054;28;20044;-71
2023/10/12 07:34:58;;;;;;;0.10;0.10;;;12.00;99.90;;;;;;5039039;28;20089;-71
2023/10/12 07:37:27;;;;;;;0.13;0.13;;;12.00;99.90;;;;;;5059727;28;20049;-71
2023/10/12 07:39:55;;;;;;;0.20;0.20;;;12.10;99.90;;;;;;5049770;28;20048;-71
2023/10/12 07:42:27;;;;;;;0.10;0.10;;;12.10;99.90;;;;;;5044488;28;20041;-72
2023/10/12 07:44:54;;;;;;;0.20;0.20;;;12.20;99.90;;;;;;5046559;28;20137;-73
2023/10/12 07:47:40;;;;;;;0.20;0.20;;;12.30;99.90;;;;;;5069453;28;20480;-72
2023/10/12 07:50:09;;;;;;;0.10;0.10;;;12.30;99.90;;;;;;5049436;28;20704;-72
2023/10/12 07:55:06;;;;;;;0.10;0.10;;;12.40;99.90;;;;;;5035524;28;20137;-73
2023/10/12 07:57:36;;;;;;;0.10;0.10;;;12.50;99.90;;;;;;5044953;28;20098;-73
2023/10/12 08:10:48;;;;;;;0.10;0.10;;;12.70;99.90;;;;;;5031989;28;20056;-73
2023/10/12 08:24:09;;;;;;;0.10;0.10;;;12.90;99.90;;;;;;5045977;28;20130;-72
2023/10/12 08:31:55;;;;;;;;;;;13.00;99.90;;;;;;5051903;28;20071;-73
2023/10/12 08:39:51;;;;;;;0.10;0.10;;;13.20;99.90;;;;;;5051149;28;20036;-71
2023/10/12 08:45:06;;;;;;;0.20;0.20;;;13.30;99.90;;;;;;5044855;28;20103;-71
2023/10/12 08:52:28;;;;;;;0.10;0.10;;;13.50;99.90;;;;;;5031664;28;20052;-71
2023/10/12 08:55:13;;;;;;;0.10;0.10;;;13.50;99.90;;;;;;5035027;28;20174;-71
2023/10/12 08:58:01;;;;;;;0.10;0.10;;;13.60;99.90;;;;;;5051925;28;20140;-71
2023/10/12 09:05:54;;;;;;;0.10;0.10;;;13.70;99.90;;;;;;5031630;28;20052;-72
2023/10/12 09:10:49;;;;;;;0.10;0.10;;;13.80;99.90;;;;;;5032172;28;20076;-73
2023/10/12 09:13:18;;;;;;;0.17;0.17;;;13.90;99.90;;;;;;5031851;28;20053;-70
2023/10/12 09:15:48;;;;;;;0.10;0.10;;;13.90;99.90;;;;;;5032163;28;20053;-70
2023/10/12 09:18:18;;;;;;;0.15;0.15;;;14.00;99.90;;;;;;5031995;28;20045;-71
2023/10/12 09:23:31;;;;;;;0.10;0.10;;;14.10;99.90;;;;;;5031353;28;20103;-71
2023/10/12 09:32:13;;;;;;;0.20;0.20;;;14.20;99.90;;;;;;5050346;28;20064;-72
2023/10/12 09:36:43;;;;;;;0.17;0.17;;;14.40;99.90;;;;;;5032657;28;20158;-72
2023/10/12 09:39:17;;;;;;;0.10;0.10;;;14.50;99.90;;;;;;5046283;28;20082;-71
2023/10/12 09:41:54;;;;;;;0.10;0.10;;;14.60;99.90;;;;;;5068842;28;20055;-72
2023/10/12 09:44:26;;;;;;;0.10;0.10;;;14.60;99.90;;;;;;5068713;28;20064;-71
2023/10/12 09:46:55;;;;;;;0.10;0.10;;;14.70;99.90;;;;;;5057713;28;20049;-71
2023/10/12 09:49:22;;;;;;;0.10;0.10;;;14.70;99.90;;;;;;5031381;28;20116;-71
2023/10/12 09:51:59;;;;;;;0.10;0.10;;;14.70;99.90;;;;;;5031436;28;20119;-72
2023/10/12 09:54:45;;;;;;;0.13;0.13;;;14.70;99.90;;;;;;5031673;28;20076;-71
2023/10/12 09:57:25;;;;;;;0.10;0.10;;;14.80;99.90;;;;;;5049302;28;20056;-72
2023/10/12 10:00:17;;;;;;;0.20;0.20;;;14.80;99.90;;;;;;5031969;28;20075;-72
2023/10/12 10:02:44;;;;;;;0.20;0.20;;;14.80;99.90;;;;;;5031999;28;20132;-71
2023/10/12 10:07:53;;;;;;;0.10;0.10;;;14.90;99.90;;;;;;5031342;28;20121;-71
2023/10/12 10:10:34;;;;;;;0.10;0.10;;;15.00;99.90;;;;;;5034210;28;20041;-71
2023/10/12 10:13:03;;;;;;;0.20;0.20;;;15.00;99.90;;;;;;5053406;28;20045;-71
2023/10/12 10:15:44;;;;;;;0.10;0.10;;;15.00;99.90;;;;;;5035406;28;20049;-71
2023/10/12 10:18:16;;;;;;;0.15;0.15;;;15.10;99.90;;;;;;5052497;28;20061;-71
2023/10/12 10:20:56;;;;;;;0.20;0.20;;;15.00;99.90;;;;;;5035307;28;20392;-71
2023/10/12 10:23:22;;;;;;;0.10;0.10;;;15.10;99.90;;;;;;5034117;28;20362;-71
2023/10/12 10:28:53;;;;;;;0.20;0.20;;;15.00;99.90;;;;;;5034995;28;20092;-71
2023/10/12 10:31:32;;;;;;;0.20;0.20;;;15.20;99.90;;;;;;5034536;28;20428;-71
2023/10/12 10:34:01;;;;;;;0.10;0.10;;;15.20;99.90;;;;;;5052167;28;20123;-71
2023/10/12 10:36:34;;;;;;;0.20;0.20;;;15.30;99.90;;;;;;5054198;28;20044;-71
2023/10/12 10:39:28;;;;;;;0.17;0.17;;;15.40;99.90;;;;;;5045983;28;20541;-71
2023/10/12 10:42:04;;;;;;;0.17;0.17;;;15.50;99.90;;;;;;5064898;28;20082;-71
2023/10/12 10:44:36;;;;;;;0.10;0.10;;;15.60;99.90;;;;;;5034351;28;20080;-71
2023/10/12 10:47:06;;;;;;;0.10;0.10;;;15.70;99.90;;;;;;5034376;28;20451;-71
2023/10/12 10:49:33;;;;;;;0.20;0.20;;;15.70;99.90;;;;;;5050074;28;20115;-71
2023/10/12 10:54:37;;;;;;;0.10;0.10;;;15.80;99.90;;;;;;5034093;28;20076;-71
2023/10/12 10:57:16;;;;;;;0.13;0.13;;;15.80;99.90;;;;;;5043406;28;20049;-71
2023/10/12 10:59:43;;;;;;;0.20;0.20;;;15.90;99.90;;;;;;5048848;28;20037;-70
2023/10/12 11:02:13;;;;;;;0.10;0.10;;;16.00;99.90;;;;;;5049660;28;20060;-71
2023/10/12 11:04:41;;;;;;;0.20;0.20;;;16.00;99.90;;;;;;5038474;28;20045;-70
2023/10/12 11:07:15;;;;;;;0.10;0.10;;;16.10;99.90;;;;;;5037238;28;20048;-70
2023/10/12 11:10:31;;;;;;;0.10;0.10;;;16.10;99.90;;;;;;5053579;28;20056;-71
2023/10/12 11:12:36;;;;;;;0.10;0.10;;;16.10;99.90;;;;;;5043667;28;20515;-71
2023/10/12 11:17:40;;;;;;;0.10;0.10;;;16.20;99.90;;;;;;5051611;28;20091;-71
2023/10/12 11:20:38;;;;;;;0.20;0.20;;;16.40;99.90;;;;;;5052582;28;20076;-71
2023/10/12 11:23:07;;;;;;;0.20;0.20;;;16.40;99.90;;;;;;5049450;28;20045;-71
2023/10/12 11:25:39;;;;;;;0.20;0.20;;;16.50;99.90;;;;;;5052152;28;20037;-70
2023/10/12 11:28:22;;;;;;;0.20;0.20;;;16.60;99.90;;;;;;5035575;28;20037;-70
2023/10/12 11:30:49;;;;;;;0.20;0.20;;;16.70;99.90;;;;;;5047531;28;20044;-71
2023/10/12 11:33:16;;;;;;;0.20;0.20;;;16.60;99.90;;;;;;5045982;28;20036;-71
2023/10/12 11:35:43;;;;;;;0.20;0.20;;;16.60;99.90;;;;;;5049143;28;20090;-70
2023/10/12 11:38:17;;;;;;;0.20;0.20;;;16.50;99.90;;;;;;5053009;28;20106;-71
2023/10/12 11:40:44;;;;;;;0.17;0.17;;;16.50;99.90;;;;;;5050149;28;20056;-71
2023/10/12 11:43:10;;;;;;;0.20;0.20;;;16.50;99.90;;;;;;5033720;28;20094;-71
2023/10/12 11:45:52;;;;;;;0.10;0.10;;;16.40;99.90;;;;;;5046766;28;20412;-71
2023/10/12 11:48:22;;;;;;;0.10;0.10;;;16.40;99.90;;;;;;5070351;28;20040;-71
2023/10/12 11:50:52;;;;;;;0.17;0.17;;;16.40;99.90;;;;;;5052305;28;20052;-71
2023/10/12 11:53:18;;;;;;;0.20;0.20;;;16.30;99.90;;;;;;5047994;28;20044;-71
2023/10/12 11:55:51;;;;;;;0.20;0.20;;;16.40;99.90;;;;;;5035031;28;20045;-71
2023/10/12 11:58:19;;;;;;;0.10;0.10;;;16.40;99.90;;;;;;5048496;28;20500;-70
2023/10/12 12:00:48;;;;;;;0.20;0.20;;;16.40;99.90;;;;;;5039200;28;20540;-70
2023/10/12 12:03:15;;;;;;;0.20;0.20;;;16.50;99.90;;;;;;5039596;28;20481;-71
2023/10/12 12:05:43;;;;;;;0.10;0.10;;;16.40;99.90;;;;;;5039335;28;20064;-71
2023/10/12 12:08:18;;;;;;;0.20;0.20;;;16.50;99.90;;;;;;5042125;28;20083;-70
2023/10/12 12:10:46;;;;;;;0.17;0.17;;;16.40;99.90;;;;;;5050174;28;20052;-71
2023/10/12 12:13:16;;;;;;;0.15;0.15;;;16.40;99.90;;;;;;5053160;28;20048;-73
2023/10/12 12:15:46;;;;;;;0.20;0.20;;;16.30;99.90;;;;;;5050488;28;20136;-70
2023/10/12 12:18:21;;;;;;;0.20;0.20;;;16.30;99.90;;;;;;5037108;28;20040;-71
2023/10/12 12:20:51;;;;;;;0.20;0.20;;;16.20;99.90;;;;;;5050872;28;20468;-70
2023/10/12 12:23:27;;;;;;;0.10;0.10;;;16.20;99.90;;;;;;5031468;28;20083;-72
2023/10/12 12:25:59;;;;;;;0.10;0.10;;;16.10;99.90;;;;;;5039532;28;20380;-71
2023/10/12 12:28:31;;;;;;;0.20;0.20;;;16.10;99.90;;;;;;5057800;28;20123;-71
2023/10/12 12:31:00;;;;;;;0.20;0.20;;;16.10;99.90;;;;;;5041229;28;20106;-71
2023/10/12 12:33:27;;;;;;;0.20;0.20;;;16.10;99.90;;;;;;5053211;28;20055;-71
2023/10/12 12:36:10;;;;;;;0.20;0.20;;;16.00;99.90;;;;;;5057496;28;20504;-71
2023/10/12 12:41:05;;;;;;;0.20;0.20;;;16.00;99.90;;;;;;5069591;28;20435;-72
2023/10/12 12:43:34;;;;;;;0.10;0.10;;;16.00;99.90;;;;;;5048373;28;20068;-72
2023/10/12 12:46:00;;;;;;;0.10;0.10;;;15.90;99.90;;;;;;5050300;28;20061;-71
2023/10/12 12:48:25;;;;;;;0.20;0.20;;;15.90;99.90;;;;;;5033010;28;20510;-72
2023/10/12 12:50:51;;;;;;;0.20;0.20;;;15.90;99.90;;;;;;5046230;28;20049;-71
2023/10/12 12:53:20;;;;;;;0.20;0.20;;;15.90;99.90;;;;;;5051934;28;20400;-71
2023/10/12 12:55:46;;;;;;;0.10;0.10;;;15.90;99.90;;;;;;5035482;28;20113;-72
2023/10/12 12:58:15;;;;;;;0.20;0.20;;;15.90;99.90;;;;;;5059252;28;20037;-71
2023/10/12 13:00:48;;;;;;;0.20;0.20;;;15.90;99.90;;;;;;5032231;28;20082;-72
2023/10/12 13:03:17;;;;;;;0.10;0.10;;;15.90;99.90;;;;;;5043495;28;20052;-72
2023/10/12 13:05:43;;;;;;;0.20;0.20;;;15.90;99.90;;;;;;5045731;28;20036;-72
2023/10/12 13:08:11;;;;;;;0.20;0.20;;;15.90;99.90;;;;;;5045837;28;20033;-71
2023/10/12 13:10:39;;;;;;;0.10;0.10;;;15.90;99.90;;;;;;5032823;28;20044;-71
2023/10/12 13:13:06;;;;;;;0.20;0.20;;;15.90;99.90;;;;;;5031242;28;20033;-72
2023/10/12 13:15:32;;;;;;;0.20;0.20;;;15.90;99.90;;;;;;5045508;28;20058;-71
2023/10/12 13:18:00;;;;;;;0.15;0.15;;;15.90;99.90;;;;;;5051616;28;20049;-72
2023/10/12 13:20:29;;;;;;;0.10;0.10;;;15.90;99.90;;;;;;5069232;28;20076;-71
2023/10/12 13:22:57;;;;;;;0.10;0.10;;;15.80;99.90;;;;;;5049212;28;20052;-71
2023/10/12 13:25:25;;;;;;;0.15;0.15;;;15.90;99.90;;;;;;5043390;28;20049;-72
2023/10/12 13:27:52;;;;;;;0.20;0.20;;;15.90;99.90;;;;;;5031416;28;20143;-72
2023/10/12 13:30:18;;;;;;;0.20;0.20;;;15.80;99.90;;;;;;5032285;28;20076;-72
2023/10/12 13:32:47;;;;;;;0.10;0.10;;;15.90;99.90;;;;;;5031614;28;20401;-71
2023/10/12 13:35:28;;;;;;;0.10;0.10;;;15.90;99.90;;;;;;5033660;28;20049;-72
2023/10/12 13:37:55;;;;;;;0.20;0.20;;;15.90;99.90;;;;;;5042077;28;20049;-71
2023/10/12 13:40:20;;;;;;;0.20;0.20;;;15.90;99.90;;;;;;5046348;28;20458;-71
2023/10/12 13:42:46;;;;;;;0.20;0.20;;;15.90;99.90;;;;;;5050911;28;20112;-71
2023/10/12 13:45:18;;;;;;;0.20;0.20;;;15.80;99.90;;;;;;5052494;28;20106;-71
2023/10/12 13:47:46;;;;;;;0.10;0.10;;;15.90;99.90;;;;;;5064601;28;20040;-70
2023/10/12 13:50:13;;;;;;;0.20;0.20;;;15.80;99.90;;;;;;5063539;28;20040;-70
2023/10/12 13:52:40;;;;;;;0.20;0.20;;;15.80;99.90;;;;;;5046694;28;20174;-71
2023/10/12 13:55:11;;;;;;;0.10;0.10;;;15.80;99.90;;;;;;5039178;28;20426;-71
2023/10/12 13:57:37;;;;;;;;;;;15.80;99.90;;;;;;5046494;28;20136;-70
2023/10/12 14:00:04;;;;;;;0.13;0.13;;;15.70;99.90;;;;;;5039805;28;19924;-70
2023/10/12 14:02:30;;;;;;;0.10;0.10;;;15.70;99.90;;;;;;5069695;28;20152;-71
2023/10/12 14:04:57;;;;;;;0.20;0.20;;;15.70;99.90;;;;;;5055395;28;20458;-72
2023/10/12 14:07:23;;;;;;;0.20;0.20;;;15.60;99.90;;;;;;5048285;28;20087;-71
2023/10/12 14:09:49;;;;;;;0.10;0.10;;;15.60;99.90;;;;;;5060874;28;20037;-70
2023/10/12 14:12:16;;;;;;;0.10;0.10;;;15.60;99.90;;;;;;5051241;28;20105;-71
2023/10/12 14:14:42;;;;;;;0.20;0.20;;;15.60;99.90;;;;;;5069077;28;20053;-71
2023/10/12 14:17:08;;;;;;;0.20;0.20;;;15.60;99.90;;;;;;5035267;28;20607;-71
2023/10/12 14:19:35;;;;;;;0.17;0.17;;;15.60;99.90;;;;;;5050385;28;20040;-71
2023/10/12 14:22:03;;;;;;;0.10;0.10;;;15.50;99.90;;;;;;5047755;28;20056;-71
2023/10/12 14:24:33;;;;;;;0.20;0.20;;;15.50;99.90;;;;;;5050018;28;20098;-71
2023/10/12 14:27:00;;;;;;;0.10;0.10;;;15.50;99.90;;;;;;5049308;28;20285;-71
2023/10/12 14:29:26;;;;;;;0.20;0.20;;;15.50;99.90;;;;;;5045220;28;20050;-70
2023/10/12 14:31:52;;;;;;;0.10;0.10;;;15.40;99.90;;;;;;5052068;28;20047;-71
2023/10/12 14:34:17;;;;;;;0.10;0.10;;;15.50;99.90;;;;;;5036231;28;20153;-71
2023/10/12 14:36:44;;;;;;;0.20;0.20;;;15.40;99.90;;;;;;5049953;28;20079;-70
2023/10/12 14:39:22;;;;;;;0.20;0.20;;;15.40;99.90;;;;;;5068061;28;20045;-70
2023/10/12 14:41:48;;;;;;;0.20;0.20;;;15.30;99.90;;;;;;5048685;28;20097;-71
2023/10/12 14:44:16;;;;;;;0.20;0.20;;;15.30;99.90;;;;;;5051447;28;20472;-71
2023/10/12 14:46:44;;;;;;;0.20;0.20;;;15.20;99.90;;;;;;5036178;28;20053;-71
2023/10/12 14:49:11;;;;;;;0.20;0.20;;;15.30;99.90;;;;;;5046576;28;20080;-71
2023/10/12 14:51:37;;;;;;;0.20;0.20;;;15.20;99.90;;;;;;5052793;28;20097;-71
2023/10/12 14:54:03;;;;;;;0.10;0.10;;;15.20;99.90;;;;;;5052215;28;20079;-71
2023/10/12 14:56:32;;;;;;;0.20;0.20;;;15.20;99.90;;;;;;5044342;28;20049;-92
2023/10/12 14:58:57;;;;;;;0.10;0.10;;;15.10;99.90;;;;;;5053301;28;20048;-86
2023/10/12 15:01:27;;;;;;;0.20;0.20;;;15.10;99.90;;;;;;5054509;28;20048;-86
2023/10/12 15:03:57;;;;;;;0.20;0.20;;;15.10;99.90;;;;;;5045181;28;20085;-86
2023/10/12 15:06:23;;;;;;;0.10;0.10;;;15.00;99.90;;;;;;5048195;28;20048;-85
2023/10/12 15:08:48;;;;;;;0.20;0.20;;;14.90;99.90;;;;;;5048388;28;20051;-84
2023/10/12 15:11:15;;;;;;;0.20;0.20;;;14.80;99.90;;;;;;5036175;28;20055;-87
2023/10/12 15:13:41;;;;;;;0.10;0.10;;;14.70;99.90;;;;;;5042423;28;20056;-86
2023/10/12 15:16:10;;;;;;;0.20;0.20;;;14.70;99.90;;;;;;5051244;28;20048;-86
2023/10/12 15:18:41;;;;;;;0.10;0.10;;;14.60;99.90;;;;;;5054954;28;20110;-86
2023/10/12 15:21:14;;;;;;;0.10;0.10;;;14.60;99.90;;;;;;5055440;28;20051;-86
2023/10/12 15:23:42;;;;;;;0.10;0.10;;;14.50;99.90;;;;;;5053909;28;20084;-85
2023/10/12 15:26:11;;;;;;;0.10;0.10;;;14.40;99.90;;;;;;5037900;28;20049;-86
2023/10/12 15:28:37;;;;;;;0.20;0.20;;;14.50;99.90;;;;;;5055090;28;20448;-85
2023/10/12 15:31:03;;;;;;;0.20;0.20;;;14.40;99.90;;;;;;5054762;28;20132;-85
2023/10/12 15:33:30;;;;;;;0.10;0.10;;;14.50;99.90;;;;;;5053638;28;20127;-86
2023/10/12 15:35:55;;;;;;;0.10;0.10;;;14.30;99.90;;;;;;5053758;28;20106;-87
2023/10/12 15:38:21;;;;;;;0.10;0.10;;;14.30;99.90;;;;;;5051804;28;20388;-85
2023/10/12 15:40:47;;;;;;;0.10;0.10;;;14.20;99.90;;;;;;5042721;28;20048;-87
2023/10/12 15:43:16;;;;;;;0.10;0.10;;;14.20;99.90;;;;;;5044504;28;20392;-87
2023/10/12 15:45:44;;;;;;;0.10;0.10;;;14.10;99.90;;;;;;5076867;28;20044;-87
2023/10/12 15:48:10;;;;;;;0.10;0.10;;;14.10;99.90;;;;;;5071086;28;20049;-87
2023/10/12 15:50:35;;;;;;;0.20;0.20;;;14.10;99.90;;;;;;5071338;28;20041;-86
2023/10/12 15:53:01;;;;;;;0.13;0.13;;;14.00;99.90;;;;;;5071344;28;20041;-87
2023/10/12 15:55:27;;;;;;;0.10;0.10;;;14.00;99.90;;;;;;5070445;28;20036;-86
2023/10/12 15:57:53;;;;;;;0.10;0.10;;;13.90;99.90;;;;;;5044226;28;20462;-86
2023/10/12 16:00:23;;;;;;;0.10;0.10;;;13.90;99.90;;;;;;5038684;28;20071;-87
2023/10/12 16:02:53;;;;;;;0.10;0.10;;;13.80;99.90;;;;;;5053272;28;20491;-86
2023/10/12 16:05:21;;;;;;;0.20;0.20;;;13.80;99.90;;;;;;5047002;28;20480;-86
2023/10/12 16:07:47;;;;;;;0.13;0.13;;;13.90;99.90;;;;;;5053461;28;20032;-86
2023/10/12 16:10:15;;;;;;;0.10;0.10;;;13.80;99.90;;;;;;5055608;28;20047;-87
2023/10/12 16:12:41;;;;;;;0.10;0.10;;;13.80;99.90;;;;;;5054761;28;20059;-87